Weather at Tampa International Airport

Public forecast

Using degrees Fahrenheit for public forecast. Weather courtesy of forecast.io.

Current aviation weather report (METAR) for Tampa International Airport

Retrieved 2020/12/01 03:53 UTC (55 minutes ago):

KTPA 010353Z 32007KT 10SM SCT050 BKN200 16/08 A3005 RMK AO2 SLP175 T01610083

Aviation forecast (TAF) for Tampa International Airport

Retrieved 2020-12-01 00:30 UTC (4 hours ago):

TAF KTPA 302329Z 0100/0206 31007KT P6SM FEW028 BKN040 FM010800 33010KT P6SM SCT030 TEMPO 0108/0112 BKN030 FM011400 34011KT P6SM SKC